Terminal Aerodrome Forecast
Issued by NWS

Home | Current Version | Previous Version | Text Only | Print | Product List | Glossary On
Versions: 1 2 3 4 5 6 7 8 9 10 11 12 13 14 15 16 17 18
000
FTUS44 KTSA 230600 AAA
TAFXNA
TAF AMD
KXNA 230700Z 2307/2406 11005KT P6SM FEW024 BKN029 OVC045
      TEMPO 2307/2311 3SM -RA BKN015
     FM231500 16006KT P6SM BKN030
     FM232100 14012KT P6SM VCTS BKN025CB PROB30 2321/2403 3SM -TSRA
      BR BKN025CB
     FM240300 14010KT P6SM VCTS BKN025CB
      TEMPO 2403/2406 3SM -TSRA BR BKN015CB=

USA.gov is the U.S. government's official web portal to all federal, state and local government web resources and services.